METAR AND TAF INFORMATION
METAR FOR ENDU
ADDS - METARS form results

(0735 UTC 23 January 2019)
Data provider http://aviationweather.gov/metar/data/
 
METAR text: ENDU 230720Z 00000KT CAVOK M25/M27 Q1010 NOSIG RMK WIND 1100FT 08009KT WIND 2200FT 12015KT
Conditions at: ENDU (BARDUFOSS (CIV/M, NO) observed 0720 UTC 23 January 2019
Temperature: -25.0°C (-13°F)
Dewpoint: -27.0°C (-17°F) [RH = 83%]
Pressure (altimeter): 29.82 inches Hg (1010.0 mb)
Winds: calm
Visibility: 6 or more miles (10+ km)
Ceiling: ceiling and visibility are OK
Clouds: unknown
Weather: no significant weather observed at this time

METAR text: ENDU 230650Z 00000KT 9999 FEW060 M26/M29 Q1010 NOSIG RMK WIND 1100FT 10007KT WIND 2200FT 11013KT
Conditions at: ENDU (BARDUFOSS (CIV/M, NO) observed 0650 UTC 23 January 2019
Temperature: -26.0°C (-15°F)
Dewpoint: -29.0°C (-20°F) [RH = 76%]
Pressure (altimeter): 29.82 inches Hg (1010.0 mb)
Winds: calm
Visibility: 6 or more miles (10+ km)
Ceiling: at least 12,000 feet AGL
Clouds: few clouds at 6000 feet AGL
Weather: no significant weather observed at this time

Forecast for: ENDU (BARDUFOSS (CIV/M, NO)
Text: TAF ENDU 2306/2406 VRB05KT CAVOK
Forecast period: 0600 UTC 23 January 2019 to 0600 UTC 24 January 2019
Forecast type: FROM: standard forecast or significant change
Winds: variable direction winds at 6 MPH (5 knots; 2.6 m/s)
Visibility: 6 or more miles 10+ km)
Ceiling: unknown
Clouds: missing
Weather: NSW  (no significant weather)

 AIRPORT MAP

 RUNWAY INFORMATION
Runway 10 Runway length 8015 ft Runway width 148 ft
Runway elevation 252 ft Runway displaced threshold 1880 ft Runway heading 109
Runway 28 Runway length 8015 ft Runway width 148 ft
Runway elevation 219 ft Runway displaced threshold 0 ft Runway heading 289

 AIRPORT FREQUENCIES
Type APP Name APP Frequency 118.8 MHZ
Type ATIS Name ATIS Frequency 129.725 MHZ
Type TWR Name TWR Frequency 118.1 MHZ

 AIRPORT NEAR NAVIGATION AIDS
Type TACAN Name Bardufoss Frequency 113400 KHZ
Type VOR-DME Name Bardufoss Frequency 114200 KHZ
Type NDB Name Sorreisa Frequency 338 KHZ
Type NDB Name Senja Frequency 414 KHZ
Type NDB Name Fossmo Frequency 371 KHZ
Type NDB Name Tiller Frequency 350 KHZ